createdAt,value
2018-04-11T00:02:31.035Z,0
2018-04-11T00:07:30.889Z,0
2018-04-11T00:12:31.093Z,0
2018-04-11T00:17:31.240Z,0
2018-04-11T00:22:31.411Z,0
2018-04-11T00:27:31.849Z,0
2018-04-11T00:32:31.030Z,0
2018-04-11T00:37:31.207Z,0
2018-04-11T00:42:31.483Z,0
2018-04-11T00:47:31.714Z,0
2018-04-11T00:52:31.967Z,0
2018-04-11T00:57:31.057Z,0
2018-04-11T01:02:31.292Z,0
2018-04-11T01:07:31.596Z,0
2018-04-11T01:12:31.870Z,0
2018-04-11T01:17:31.173Z,0
2018-04-11T01:22:31.535Z,0
2018-04-11T01:27:31.830Z,0
2018-04-11T01:32:31.053Z,0
2018-04-11T01:37:31.386Z,0
2018-04-11T01:42:31.879Z,0
2018-04-11T01:47:31.063Z,0
2018-04-11T01:52:31.174Z,0
2018-04-11T01:57:31.379Z,0
2018-04-11T02:02:31.852Z,0
2018-04-11T02:07:31.135Z,0
2018-04-11T02:12:31.438Z,0
2018-04-11T02:17:31.918Z,0
2018-04-11T02:22:31.084Z,0
2018-04-11T02:27:31.321Z,0
2018-04-11T02:32:31.608Z,0
2018-04-11T02:37:31.850Z,0
2018-04-11T02:42:31.160Z,0
2018-04-11T02:47:31.287Z,0
2018-04-11T02:52:31.506Z,0
2018-04-11T02:57:31.697Z,0
2018-04-11T03:02:31.877Z,0
2018-04-11T03:07:31.051Z,0
2018-04-11T03:12:31.224Z,0
2018-04-11T03:17:31.629Z,0
2018-04-11T03:22:32.049Z,0
2018-04-11T03:27:31.434Z,0
2018-04-11T03:32:31.759Z,0
2018-04-11T03:37:31.483Z,0
2018-04-11T03:42:31.776Z,0
2018-04-11T03:47:31.260Z,0
2018-04-11T03:52:31.462Z,0
2018-04-11T03:57:31.722Z,0
2018-04-11T04:02:32.046Z,0
2018-04-11T04:07:31.263Z,0
2018-04-11T04:12:31.503Z,0
2018-04-11T04:17:31.869Z,0
2018-04-11T04:22:32.019Z,0
2018-04-11T04:27:31.363Z,0
2018-04-11T04:32:32.019Z,0
2018-04-11T04:37:31.273Z,0
2018-04-11T04:42:31.483Z,0
2018-04-11T04:47:31.768Z,5
2018-04-11T04:52:31.293Z,5
2018-04-11T04:57:31.566Z,9
2018-04-11T05:02:31.822Z,13
2018-04-11T05:07:31.955Z,13
2018-04-11T05:12:32.284Z,13
2018-04-11T05:17:31.492Z,18.3
2018-04-11T05:22:31.821Z,18.3
2018-04-11T05:27:32.099Z,24
2018-04-11T05:32:31.404Z,24
2018-04-11T05:37:31.698Z,30.7
2018-04-11T05:42:31.935Z,29
2018-04-11T05:47:31.252Z,29
2018-04-11T05:52:31.464Z,29
2018-04-11T05:57:31.638Z,37.7
2018-04-11T06:02:31.940Z,37.7
2018-04-11T06:07:31.255Z,36.7
2018-04-11T06:12:31.444Z,36.7
2018-04-11T06:17:31.768Z,39.7
2018-04-11T06:22:31.964Z,39.7
2018-04-11T06:27:32.122Z,49.7
2018-04-11T06:32:31.369Z,60.7
2018-04-11T06:37:31.597Z,60.7
2018-04-11T06:42:31.930Z,75
2018-04-11T06:47:32.201Z,75
2018-04-11T06:52:31.527Z,75
2018-04-11T06:57:31.700Z,76.5
2018-04-11T07:02:31.971Z,76.5
2018-04-11T07:07:32.217Z,84.8
2018-04-11T07:12:31.351Z,84.8
2018-04-11T07:17:31.557Z,105.2
2018-04-11T07:22:31.901Z,105.2
2018-04-11T07:27:32.218Z,99
2018-04-11T07:32:31.460Z,99
2018-04-11T07:37:31.665Z,114.5
2018-04-11T07:42:31.914Z,114.5
2018-04-11T07:47:32.160Z,126.8
2018-04-11T07:52:32.265Z,175
2018-04-11T07:57:31.546Z,175
2018-04-11T08:02:31.964Z,175
2018-04-11T08:07:32.098Z,115.5
2018-04-11T08:12:31.379Z,115.5
2018-04-11T08:17:31.729Z,127
2018-04-11T08:22:32.241Z,127
2018-04-11T08:27:31.539Z,158
2018-04-11T08:32:31.930Z,158
2018-04-11T08:37:32.217Z,168.7
2018-04-11T08:42:31.444Z,146.7
2018-04-11T08:47:31.678Z,146.7
2018-04-11T08:52:31.870Z,245.5
2018-04-11T08:57:32.227Z,245.5
2018-04-11T09:02:31.550Z,245.5
2018-04-11T09:07:31.921Z,264.8
2018-04-11T09:12:32.042Z,264.8
2018-04-11T09:17:32.288Z,215.2
2018-04-11T09:22:32.425Z,215.2
2018-04-11T09:27:31.776Z,245.2
2018-04-11T09:32:32.077Z,245.2
2018-04-11T09:37:32.360Z,243.2
2018-04-11T09:42:31.622Z,243.2
2018-04-11T09:47:31.856Z,268.7
2018-04-11T09:52:31.959Z,268.7
2018-04-11T09:57:32.137Z,392.7
2018-04-11T10:02:32.453Z,392.7
2018-04-11T10:07:31.719Z,311.2
2018-04-11T10:12:31.932Z,311.2
2018-04-11T10:17:32.141Z,294
2018-04-11T10:22:32.385Z,294
2018-04-11T10:27:31.674Z,257
2018-04-11T10:32:31.840Z,257
2018-04-11T10:37:32.165Z,311
2018-04-11T10:42:32.502Z,345.2
2018-04-11T10:47:31.769Z,345.2
2018-04-11T10:52:32.013Z,271.8
2018-04-11T10:57:32.263Z,271.8
2018-04-11T11:02:32.516Z,355.3
2018-04-11T11:07:31.676Z,355.3
2018-04-11T11:12:31.822Z,355.3
2018-04-11T11:17:32.111Z,319.5
2018-04-11T11:22:32.345Z,345.8
2018-04-11T11:27:31.591Z,345.8
2018-04-11T11:32:31.683Z,251.5
2018-04-11T11:37:31.906Z,251.5
2018-04-11T11:42:32.341Z,307.2
2018-04-11T11:47:31.756Z,307.2
2018-04-11T11:52:31.999Z,307.2
2018-04-11T11:57:32.302Z,269.3
2018-04-11T12:02:32.586Z,204.2
2018-04-11T12:07:31.716Z,204.2
2018-04-11T12:12:31.907Z,204.2
2018-04-11T12:17:32.155Z,176.7
2018-04-11T12:22:32.304Z,99.5
2018-04-11T12:27:32.583Z,99.5
2018-04-11T12:32:32.164Z,283
2018-04-11T12:37:32.388Z,283
2018-04-11T12:42:31.654Z,283
2018-04-11T12:47:31.946Z,211
2018-04-11T12:52:32.204Z,152.5
2018-04-11T12:57:32.372Z,152.5
2018-04-11T13:02:32.720Z,114
2018-04-11T13:07:32.019Z,114
2018-04-11T13:12:32.192Z,112.3
2018-04-11T13:17:32.430Z,112.3
2018-04-11T13:22:32.712Z,134
2018-04-11T13:27:32.007Z,134
2018-04-11T13:32:32.458Z,213
2018-04-11T13:37:32.650Z,213
2018-04-11T13:42:31.892Z,209
2018-04-11T13:47:32.010Z,209
2018-04-11T13:52:32.271Z,140
2018-04-11T13:57:32.498Z,140
2018-04-11T14:02:31.869Z,150
2018-04-11T14:07:32.023Z,150
2018-04-11T14:12:32.294Z,290
2018-04-11T14:17:32.590Z,290
2018-04-11T14:22:31.789Z,290
2018-04-11T14:27:32.015Z,146
2018-04-11T14:32:32.213Z,172.3
2018-04-11T14:37:32.330Z,172.3
2018-04-11T14:42:32.639Z,203.8
2018-04-11T14:47:31.935Z,203.8
2018-04-11T14:52:32.185Z,152.8
2018-04-11T14:57:32.480Z,152.8
2018-04-11T15:02:32.789Z,144.3
2018-04-11T15:07:31.958Z,144.3
2018-04-11T15:12:32.247Z,144.3
2018-04-11T15:17:32.217Z,137.2
2018-04-11T15:22:32.541Z,101.2
2018-04-11T15:27:32.757Z,101.2
2018-04-11T15:32:32.113Z,113
2018-04-11T15:37:32.310Z,113
2018-04-11T15:42:32.498Z,97.5
2018-04-11T15:47:32.829Z,97.5
2018-04-11T15:52:32.043Z,97.5
2018-04-11T15:57:32.419Z,73
2018-04-11T16:02:32.717Z,55.2
2018-04-11T16:07:31.862Z,55.2
2018-04-11T16:12:32.399Z,65
2018-04-11T16:17:32.604Z,65
2018-04-11T16:22:32.775Z,69.3
2018-04-11T16:27:31.947Z,69.3
2018-04-11T16:32:32.225Z,63.7
2018-04-11T16:37:32.359Z,63.7
2018-04-11T16:42:32.597Z,37.2
2018-04-11T16:47:32.817Z,37.2
2018-04-11T16:52:31.958Z,27.3
2018-04-11T16:57:32.100Z,27.3
2018-04-11T17:02:32.529Z,27.3
2018-04-11T17:07:32.769Z,26.7
2018-04-11T17:12:32.011Z,17.3
2018-04-11T17:17:32.344Z,17.3
2018-04-11T17:22:32.604Z,10.3
2018-04-11T17:27:32.802Z,10.3
2018-04-11T17:32:32.086Z,6.3
2018-04-11T17:37:32.395Z,6.3
2018-04-11T17:42:32.609Z,6.3
2018-04-11T17:47:32.856Z,5
2018-04-11T17:52:32.190Z,5
2018-04-11T17:57:32.432Z,5
2018-04-11T18:02:32.858Z,0
2018-04-11T18:07:32.147Z,0
2018-04-11T18:12:32.362Z,0
2018-04-11T18:17:32.641Z,0
2018-04-11T18:22:32.899Z,0
2018-04-11T18:27:32.152Z,0
2018-04-11T18:32:32.443Z,0
2018-04-11T18:37:32.522Z,0
2018-04-11T18:42:32.703Z,0
2018-04-11T18:47:32.841Z,0
2018-04-11T18:52:32.280Z,0
2018-04-11T18:57:32.498Z,0
2018-04-11T19:02:32.783Z,0
2018-04-11T19:07:33.084Z,0
2018-04-11T19:12:32.414Z,0
2018-04-11T19:17:32.603Z,0
2018-04-11T19:22:32.776Z,0
2018-04-11T19:27:33.071Z,0
2018-04-11T19:32:32.401Z,0
2018-04-11T19:37:32.577Z,0
2018-04-11T19:42:32.758Z,0
2018-04-11T19:47:32.984Z,0
2018-04-11T19:52:32.220Z,0
2018-04-11T19:57:32.581Z,0
2018-04-11T20:02:33.006Z,0
2018-04-11T20:07:32.158Z,0
2018-04-11T20:12:32.437Z,0
2018-04-11T20:17:32.650Z,0
2018-04-11T20:22:32.941Z,0
2018-04-11T20:27:32.244Z,0
2018-04-11T20:32:32.491Z,0
2018-04-11T20:37:32.814Z,0
2018-04-11T20:42:33.050Z,0
2018-04-11T20:47:32.435Z,0
2018-04-11T20:52:32.662Z,0
2018-04-11T20:57:32.980Z,0
2018-04-11T21:02:32.420Z,0
2018-04-11T21:07:32.653Z,0
2018-04-11T21:12:33.097Z,0
2018-04-11T21:17:32.273Z,0
2018-04-11T21:22:32.399Z,0
2018-04-11T21:27:32.687Z,0
2018-04-11T21:32:32.969Z,0
2018-04-11T21:37:33.170Z,0
2018-04-11T21:42:32.537Z,0
2018-04-11T21:47:32.865Z,0
2018-04-11T21:52:33.098Z,0
2018-04-11T21:57:32.448Z,0
2018-04-11T22:02:32.977Z,0
2018-04-11T22:07:32.458Z,0
2018-04-11T22:12:32.838Z,0
2018-04-11T22:17:33.135Z,0
2018-04-11T22:22:33.138Z,0
2018-04-11T22:27:32.412Z,0
2018-04-11T22:32:32.538Z,0
2018-04-11T22:37:32.673Z,0
2018-04-11T22:42:32.990Z,0
2018-04-11T22:47:33.212Z,0
2018-04-11T22:52:32.377Z,0
2018-04-11T22:57:33.191Z,0
2018-04-11T23:02:32.486Z,0
2018-04-11T23:07:32.901Z,0
2018-04-11T23:12:33.091Z,0
2018-04-11T23:17:33.323Z,0
2018-04-11T23:22:32.605Z,0
2018-04-11T23:27:32.980Z,0
2018-04-11T23:32:33.295Z,0
2018-04-11T23:37:32.762Z,0
2018-04-11T23:42:33.174Z,0
2018-04-11T23:47:32.560Z,0
2018-04-11T23:52:32.941Z,0
2018-04-11T23:57:33.214Z,0
